Portada
METAR-TAF:

METAR-TAF

Aeroports :

Tri-County Airport

Ahoskie, Carolina del Nord, Estats Units d'Amèrica

latitud: 36-17-51N, longitud: 077-10-15W, altitud: 21 m

Observació

L'informe es va fer fa 28 minuts, a les 05:35 UTC
Vent calma
Temperatura 24°C
Humitat 83%
Pressió 1016 hPa
Visibilitat: 16.1 km
Cel clar

METAR: KASJ 220535Z AUTO 00000KT 10SM CLR 24/21 A2999 RMK AO2 T02360208

Hora: 02:03 (06:03 UTC)


TAF: manca

Observacions i pronòstics meteorològics de més de 4000 aeroports (METAR i TAF).

Les estacions disponibles són els punts grocs i vermells al mapa.

Posi el ratolí al punt desitjat per veure el nom de l'estació.

Feu clic per veure les observacions i els pronòstics meteorològics.

Per canviar el mapa: feu clic els botons verds amb una creu de color negre per apropar; al botó verd amb un guió per allunyar la imatge; o en les fletxes verdes per a mapes adjacents.


METAR-TAF: